sensor_id;sensor_type;location;lat;lon;timestamp;P1;durP1;ratioP1;P2;durP2;ratioP2
41167;SDS011;26906;45.658;9.272;2023-03-15T06:35:58;0.20;;;0.20;;
41167;SDS011;26906;45.658;9.272;2023-03-15T06:38:28;0.50;;;0.22;;
41167;SDS011;26906;45.658;9.272;2023-03-15T06:40:55;0.20;;;0.20;;
41167;SDS011;26906;45.658;9.272;2023-03-15T06:43:23;0.30;;;0.20;;
41167;SDS011;26906;45.658;9.272;2023-03-15T06:45:49;1.27;;;0.32;;
41167;SDS011;26906;45.658;9.272;2023-03-15T06:48:15;0.20;;;0.20;;
41167;SDS011;26906;45.658;9.272;2023-03-15T06:50:44;0.20;;;0.20;;
41167;SDS011;26906;45.658;9.272;2023-03-15T06:53:10;0.20;;;0.20;;
41167;SDS011;26906;45.658;9.272;2023-03-15T06:55:36;4.57;;;0.30;;
41167;SDS011;26906;45.658;9.272;2023-03-15T06:58:01;0.20;;;0.20;;
41167;SDS011;26906;45.658;9.272;2023-03-15T07:00:27;0.75;;;0.30;;
41167;SDS011;26906;45.658;9.272;2023-03-15T07:02:53;1.35;;;0.45;;
41167;SDS011;26906;45.658;9.272;2023-03-15T07:05:18;0.20;;;0.20;;
41167;SDS011;26906;45.658;9.272;2023-03-15T07:07:44;0.20;;;0.20;;
41167;SDS011;26906;45.658;9.272;2023-03-15T07:10:10;0.28;;;0.28;;
41167;SDS011;26906;45.658;9.272;2023-03-15T07:12:36;0.65;;;0.30;;
41167;SDS011;26906;45.658;9.272;2023-03-15T07:15:01;0.30;;;0.30;;
41167;SDS011;26906;45.658;9.272;2023-03-15T07:17:28;0.20;;;0.20;;
41167;SDS011;26906;45.658;9.272;2023-03-15T07:19:53;1.75;;;0.20;;
41167;SDS011;26906;45.658;9.272;2023-03-15T07:22:20;4.13;;;0.40;;
41167;SDS011;26906;45.658;9.272;2023-03-15T07:24:48;0.38;;;0.20;;
41167;SDS011;26906;45.658;9.272;2023-03-15T07:27:14;0.40;;;0.40;;
41167;SDS011;26906;45.658;9.272;2023-03-15T07:29:39;0.47;;;0.35;;
41167;SDS011;26906;45.658;9.272;2023-03-15T07:32:05;0.43;;;0.30;;
41167;SDS011;26906;45.658;9.272;2023-03-15T07:34:31;0.25;;;0.22;;
41167;SDS011;26906;45.658;9.272;2023-03-15T07:36:57;1.30;;;0.50;;
41167;SDS011;26906;45.658;9.272;2023-03-15T07:39:23;1.55;;;0.40;;
41167;SDS011;26906;45.658;9.272;2023-03-15T07:41:53;0.20;;;0.20;;
41167;SDS011;26906;45.658;9.272;2023-03-15T07:44:28;1.15;;;0.30;;
41167;SDS011;26906;45.658;9.272;2023-03-15T07:46:53;1.85;;;0.25;;
41167;SDS011;26906;45.658;9.272;2023-03-15T07:49:20;0.17;;;0.17;;
41167;SDS011;26906;45.658;9.272;2023-03-15T07:51:45;2.55;;;0.68;;
41167;SDS011;26906;45.658;9.272;2023-03-15T07:54:11;0.20;;;0.20;;
41167;SDS011;26906;45.658;9.272;2023-03-15T07:56:37;0.40;;;0.30;;
41167;SDS011;26906;45.658;9.272;2023-03-15T07:59:02;0.32;;;0.25;;
41167;SDS011;26906;45.658;9.272;2023-03-15T08:01:28;0.50;;;0.40;;
41167;SDS011;26906;45.658;9.272;2023-03-15T08:03:54;0.30;;;0.30;;
41167;SDS011;26906;45.658;9.272;2023-03-15T08:06:19;0.50;;;0.30;;
41167;SDS011;26906;45.658;9.272;2023-03-15T08:08:45;0.32;;;0.30;;
41167;SDS011;26906;45.658;9.272;2023-03-15T08:11:11;0.20;;;0.20;;
41167;SDS011;26906;45.658;9.272;2023-03-15T08:13:37;0.95;;;0.70;;
41167;SDS011;26906;45.658;9.272;2023-03-15T08:16:02;0.85;;;0.55;;
41167;SDS011;26906;45.658;9.272;2023-03-15T08:18:28;1.73;;;0.30;;
41167;SDS011;26906;45.658;9.272;2023-03-15T08:20:54;0.30;;;0.20;;
41167;SDS011;26906;45.658;9.272;2023-03-15T08:23:20;0.30;;;0.17;;
41167;SDS011;26906;45.658;9.272;2023-03-15T08:25:46;0.57;;;0.30;;
41167;SDS011;26906;45.658;9.272;2023-03-15T08:28:12;0.47;;;0.30;;
41167;SDS011;26906;45.658;9.272;2023-03-15T08:30:39;3.40;;;0.60;;
41167;SDS011;26906;45.658;9.272;2023-03-15T08:33:04;0.50;;;0.47;;
41167;SDS011;26906;45.658;9.272;2023-03-15T08:35:31;0.30;;;0.30;;
41167;SDS011;26906;45.658;9.272;2023-03-15T08:38:04;1.35;;;0.30;;
41167;SDS011;26906;45.658;9.272;2023-03-15T08:40:30;0.22;;;0.20;;
41167;SDS011;26906;45.658;9.272;2023-03-15T08:42:56;0.35;;;0.30;;
41167;SDS011;26906;45.658;9.272;2023-03-15T08:45:23;0.20;;;0.20;;
41167;SDS011;26906;45.658;9.272;2023-03-15T08:47:55;1.08;;;0.40;;
41167;SDS011;26906;45.658;9.272;2023-03-15T08:50:24;0.35;;;0.30;;
41167;SDS011;26906;45.658;9.272;2023-03-15T08:52:51;1.60;;;0.30;;
41167;SDS011;26906;45.658;9.272;2023-03-15T08:55:17;5.10;;;0.50;;
41167;SDS011;26906;45.658;9.272;2023-03-15T08:57:43;0.20;;;0.20;;
41167;SDS011;26906;45.658;9.272;2023-03-15T09:00:09;0.20;;;0.20;;
41167;SDS011;26906;45.658;9.272;2023-03-15T09:02:41;0.43;;;0.20;;
41167;SDS011;26906;45.658;9.272;2023-03-15T09:05:07;0.38;;;0.30;;
41167;SDS011;26906;45.658;9.272;2023-03-15T09:07:36;0.57;;;0.45;;
41167;SDS011;26906;45.658;9.272;2023-03-15T09:10:03;0.40;;;0.28;;
41167;SDS011;26906;45.658;9.272;2023-03-15T09:12:29;0.22;;;0.22;;
41167;SDS011;26906;45.658;9.272;2023-03-15T09:14:55;0.38;;;0.38;;
41167;SDS011;26906;45.658;9.272;2023-03-15T09:17:21;0.20;;;0.20;;
41167;SDS011;26906;45.658;9.272;2023-03-15T09:19:47;0.10;;;0.10;;
41167;SDS011;26906;45.658;9.272;2023-03-15T09:22:12;0.40;;;0.20;;
41167;SDS011;26906;45.658;9.272;2023-03-15T09:24:38;0.38;;;0.30;;
41167;SDS011;26906;45.658;9.272;2023-03-15T09:27:03;0.20;;;0.20;;
41167;SDS011;26906;45.658;9.272;2023-03-15T09:29:29;0.10;;;0.10;;
41167;SDS011;26906;45.658;9.272;2023-03-15T09:31:55;0.43;;;0.20;;
41167;SDS011;26906;45.658;9.272;2023-03-15T09:34:22;0.32;;;0.30;;
41167;SDS011;26906;45.658;9.272;2023-03-15T09:36:48;0.30;;;0.20;;
41167;SDS011;26906;45.658;9.272;2023-03-15T09:39:18;0.22;;;0.20;;
41167;SDS011;26906;45.658;9.272;2023-03-15T09:41:54;0.65;;;0.50;;
41167;SDS011;26906;45.658;9.272;2023-03-15T09:52:50;0.20;;;0.20;;
41167;SDS011;26906;45.658;9.272;2023-03-15T09:55:23;0.30;;;0.30;;
41167;SDS011;26906;45.658;9.272;2023-03-15T09:57:51;0.80;;;0.30;;
41167;SDS011;26906;45.658;9.272;2023-03-15T10:00:41;0.40;;;0.28;;
41167;SDS011;26906;45.658;9.272;2023-03-15T10:03:11;0.20;;;0.20;;
41167;SDS011;26906;45.658;9.272;2023-03-15T10:06:10;0.90;;;0.38;;
41167;SDS011;26906;45.658;9.272;2023-03-15T10:08:54;0.35;;;0.35;;
41167;SDS011;26906;45.658;9.272;2023-03-15T10:14:26;0.22;;;0.22;;
41167;SDS011;26906;45.658;9.272;2023-03-15T10:17:46;0.50;;;0.30;;
41167;SDS011;26906;45.658;9.272;2023-03-15T10:20:19;0.60;;;0.40;;
41167;SDS011;26906;45.658;9.272;2023-03-15T10:22:59;0.55;;;0.20;;
41167;SDS011;26906;45.658;9.272;2023-03-15T10:25:42;0.38;;;0.28;;
41167;SDS011;26906;45.658;9.272;2023-03-15T10:28:11;0.20;;;0.20;;
41167;SDS011;26906;45.658;9.272;2023-03-15T10:30:45;0.32;;;0.32;;
41167;SDS011;26906;45.658;9.272;2023-03-15T10:33:14;0.25;;;0.25;;
41167;SDS011;26906;45.658;9.272;2023-03-15T10:35:47;0.85;;;0.20;;
41167;SDS011;26906;45.658;9.272;2023-03-15T10:38:13;0.82;;;0.40;;
41167;SDS011;26906;45.658;9.272;2023-03-15T10:40:44;0.28;;;0.20;;
41167;SDS011;26906;45.658;9.272;2023-03-15T10:45:45;0.32;;;0.20;;
41167;SDS011;26906;45.658;9.272;2023-03-15T10:48:25;1.27;;;0.40;;
41167;SDS011;26906;45.658;9.272;2023-03-15T10:50:55;0.85;;;0.30;;
41167;SDS011;26906;45.658;9.272;2023-03-15T10:53:21;0.20;;;0.20;;
41167;SDS011;26906;45.658;9.272;2023-03-15T10:55:56;0.57;;;0.35;;
41167;SDS011;26906;45.658;9.272;2023-03-15T10:58:41;0.50;;;0.30;;
41167;SDS011;26906;45.658;9.272;2023-03-15T11:01:28;0.35;;;0.20;;
41167;SDS011;26906;45.658;9.272;2023-03-15T11:04:14;0.57;;;0.20;;
41167;SDS011;26906;45.658;9.272;2023-03-15T11:06:50;0.35;;;0.20;;
41167;SDS011;26906;45.658;9.272;2023-03-15T11:09:22;0.40;;;0.30;;
41167;SDS011;26906;45.658;9.272;2023-03-15T11:12:00;0.30;;;0.20;;
41167;SDS011;26906;45.658;9.272;2023-03-15T11:17:03;1.02;;;0.20;;
41167;SDS011;26906;45.658;9.272;2023-03-15T11:19:56;0.90;;;0.20;;
41167;SDS011;26906;45.658;9.272;2023-03-15T11:22:46;0.25;;;0.25;;
41167;SDS011;26906;45.658;9.272;2023-03-15T11:25:15;1.38;;;0.40;;
41167;SDS011;26906;45.658;9.272;2023-03-15T11:27:41;0.30;;;0.20;;
41167;SDS011;26906;45.658;9.272;2023-03-15T11:30:15;0.25;;;0.25;;
41167;SDS011;26906;45.658;9.272;2023-03-15T11:32:42;0.20;;;0.20;;
41167;SDS011;26906;45.658;9.272;2023-03-15T11:37:59;0.20;;;0.20;;
41167;SDS011;26906;45.658;9.272;2023-03-15T11:40:40;0.68;;;0.32;;
41167;SDS011;26906;45.658;9.272;2023-03-15T11:46:20;0.20;;;0.20;;
41167;SDS011;26906;45.658;9.272;2023-03-15T11:49:09;0.25;;;0.25;;
41167;SDS011;26906;45.658;9.272;2023-03-15T11:51:56;0.13;;;0.13;;
41167;SDS011;26906;45.658;9.272;2023-03-15T11:54:22;0.40;;;0.30;;
41167;SDS011;26906;45.658;9.272;2023-03-15T11:56:53;4.43;;;0.38;;
41167;SDS011;26906;45.658;9.272;2023-03-15T11:59:28;0.45;;;0.20;;
41167;SDS011;26906;45.658;9.272;2023-03-15T12:04:51;0.52;;;0.30;;
41167;SDS011;26906;45.658;9.272;2023-03-15T12:17:53;3.33;;;0.20;;
41167;SDS011;26906;45.658;9.272;2023-03-15T12:20:25;0.55;;;0.10;;
41167;SDS011;26906;45.658;9.272;2023-03-15T12:25:54;1.15;;;0.20;;
41167;SDS011;26906;45.658;9.272;2023-03-15T12:29:10;0.25;;;0.20;;
41167;SDS011;26906;45.658;9.272;2023-03-15T12:34:23;0.25;;;0.25;;
41167;SDS011;26906;45.658;9.272;2023-03-15T12:37:05;1.00;;;0.40;;
41167;SDS011;26906;45.658;9.272;2023-03-15T12:42:03;0.25;;;0.20;;
41167;SDS011;26906;45.658;9.272;2023-03-15T12:44:40;1.85;;;0.30;;
41167;SDS011;26906;45.658;9.272;2023-03-15T12:47:10;1.23;;;0.30;;
41167;SDS011;26906;45.658;9.272;2023-03-15T12:49:43;0.55;;;0.25;;
41167;SDS011;26906;45.658;9.272;2023-03-15T12:57:27;0.20;;;0.20;;
41167;SDS011;26906;45.658;9.272;2023-03-15T13:03:25;0.30;;;0.30;;
41167;SDS011;26906;45.658;9.272;2023-03-15T13:08:19;0.40;;;0.20;;
41167;SDS011;26906;45.658;9.272;2023-03-15T13:10:55;0.20;;;0.20;;
41167;SDS011;26906;45.658;9.272;2023-03-15T13:19:16;0.20;;;0.20;;
41167;SDS011;26906;45.658;9.272;2023-03-15T13:22:04;0.20;;;0.20;;
41167;SDS011;26906;45.658;9.272;2023-03-15T13:24:54;1.35;;;0.30;;
41167;SDS011;26906;45.658;9.272;2023-03-15T13:27:45;0.22;;;0.22;;
41167;SDS011;26906;45.658;9.272;2023-03-15T13:36:09;0.55;;;0.28;;
41167;SDS011;26906;45.658;9.272;2023-03-15T13:41:04;0.25;;;0.10;;
41167;SDS011;26906;45.658;9.272;2023-03-15T13:43:39;0.20;;;0.20;;
41167;SDS011;26906;45.658;9.272;2023-03-15T13:46:06;0.13;;;0.13;;
41167;SDS011;26906;45.658;9.272;2023-03-15T13:48:38;0.50;;;0.20;;
41167;SDS011;26906;45.658;9.272;2023-03-15T13:53:53;0.30;;;0.22;;
41167;SDS011;26906;45.658;9.272;2023-03-15T13:59:34;0.10;;;0.10;;
41167;SDS011;26906;45.658;9.272;2023-03-15T14:02:19;0.38;;;0.10;;
41167;SDS011;26906;45.658;9.272;2023-03-15T14:04:50;0.20;;;0.20;;
41167;SDS011;26906;45.658;9.272;2023-03-15T14:07:25;0.22;;;0.22;;
41167;SDS011;26906;45.658;9.272;2023-03-15T14:10:49;0.88;;;0.30;;
41167;SDS011;26906;45.658;9.272;2023-03-15T14:15:48;0.30;;;0.30;;
41167;SDS011;26906;45.658;9.272;2023-03-15T14:20:43;1.70;;;0.40;;
41167;SDS011;26906;45.658;9.272;2023-03-15T14:23:16;0.22;;;0.20;;
41167;SDS011;26906;45.658;9.272;2023-03-15T14:25:49;0.55;;;0.20;;
41167;SDS011;26906;45.658;9.272;2023-03-15T14:28:17;0.20;;;0.20;;
41167;SDS011;26906;45.658;9.272;2023-03-15T14:30:55;0.47;;;0.20;;
41167;SDS011;26906;45.658;9.272;2023-03-15T14:33:28;0.30;;;0.30;;
41167;SDS011;26906;45.658;9.272;2023-03-15T14:38:50;0.30;;;0.30;;
41167;SDS011;26906;45.658;9.272;2023-03-15T14:41:21;0.20;;;0.20;;
41167;SDS011;26906;45.658;9.272;2023-03-15T14:43:55;0.55;;;0.30;;
41167;SDS011;26906;45.658;9.272;2023-03-15T14:46:21;0.20;;;0.20;;
41167;SDS011;26906;45.658;9.272;2023-03-15T14:48:48;0.40;;;0.25;;
41167;SDS011;26906;45.658;9.272;2023-03-15T14:51:15;0.47;;;0.30;;
41167;SDS011;26906;45.658;9.272;2023-03-15T14:53:45;0.38;;;0.30;;
41167;SDS011;26906;45.658;9.272;2023-03-15T14:56:13;0.20;;;0.20;;
41167;SDS011;26906;45.658;9.272;2023-03-15T14:58:39;0.63;;;0.20;;
41167;SDS011;26906;45.658;9.272;2023-03-15T15:01:05;1.10;;;0.30;;
41167;SDS011;26906;45.658;9.272;2023-03-15T15:06:06;0.47;;;0.30;;
41167;SDS011;26906;45.658;9.272;2023-03-15T15:08:35;0.30;;;0.30;;
41167;SDS011;26906;45.658;9.272;2023-03-15T15:11:04;0.88;;;0.38;;
41167;SDS011;26906;45.658;9.272;2023-03-15T15:13:33;1.65;;;0.38;;
41167;SDS011;26906;45.658;9.272;2023-03-15T15:15:59;1.40;;;0.55;;
41167;SDS011;26906;45.658;9.272;2023-03-15T15:18:28;0.45;;;0.45;;
41167;SDS011;26906;45.658;9.272;2023-03-15T15:20:57;1.30;;;0.43;;
41167;SDS011;26906;45.658;9.272;2023-03-15T15:23:37;0.43;;;0.30;;
41167;SDS011;26906;45.658;9.272;2023-03-15T15:26:05;0.50;;;0.40;;
41167;SDS011;26906;45.658;9.272;2023-03-15T15:28:36;1.05;;;1.05;;
41167;SDS011;26906;45.658;9.272;2023-03-15T15:31:03;0.68;;;0.50;;
41167;SDS011;26906;45.658;9.272;2023-03-15T15:33:32;0.50;;;0.50;;
41167;SDS011;26906;45.658;9.272;2023-03-15T15:35:58;1.05;;;0.50;;
41167;SDS011;26906;45.658;9.272;2023-03-15T15:38:25;0.85;;;0.40;;
41167;SDS011;26906;45.658;9.272;2023-03-15T15:40:56;0.40;;;0.40;;
41167;SDS011;26906;45.658;9.272;2023-03-15T15:43:22;0.32;;;0.30;;
41167;SDS011;26906;45.658;9.272;2023-03-15T15:45:47;1.27;;;0.60;;
41167;SDS011;26906;45.658;9.272;2023-03-15T15:48:13;0.60;;;0.43;;
41167;SDS011;26906;45.658;9.272;2023-03-15T15:50:38;1.33;;;0.32;;
41167;SDS011;26906;45.658;9.272;2023-03-15T15:53:04;2.85;;;0.50;;
41167;SDS011;26906;45.658;9.272;2023-03-15T15:55:32;0.85;;;0.70;;
41167;SDS011;26906;45.658;9.272;2023-03-15T15:58:00;2.63;;;1.10;;
41167;SDS011;26906;45.658;9.272;2023-03-15T16:00:27;2.25;;;1.52;;
41167;SDS011;26906;45.658;9.272;2023-03-15T16:02:54;1.27;;;0.80;;
41167;SDS011;26906;45.658;9.272;2023-03-15T16:05:21;2.03;;;0.80;;
41167;SDS011;26906;45.658;9.272;2023-03-15T16:07:53;0.65;;;0.60;;
41167;SDS011;26906;45.658;9.272;2023-03-15T16:10:22;1.08;;;0.55;;
41167;SDS011;26906;45.658;9.272;2023-03-15T16:12:50;1.02;;;0.50;;
41167;SDS011;26906;45.658;9.272;2023-03-15T16:15:18;0.30;;;0.30;;
41167;SDS011;26906;45.658;9.272;2023-03-15T16:17:44;0.45;;;0.38;;
41167;SDS011;26906;45.658;9.272;2023-03-15T16:20:10;0.60;;;0.50;;
41167;SDS011;26906;45.658;9.272;2023-03-15T16:22:38;0.65;;;0.32;;
41167;SDS011;26906;45.658;9.272;2023-03-15T16:25:10;1.75;;;0.32;;
41167;SDS011;26906;45.658;9.272;2023-03-15T16:27:41;0.63;;;0.40;;
41167;SDS011;26906;45.658;9.272;2023-03-15T16:30:12;1.02;;;0.25;;
41167;SDS011;26906;45.658;9.272;2023-03-15T16:32:54;0.50;;;0.30;;
41167;SDS011;26906;45.658;9.272;2023-03-15T16:35:21;0.38;;;0.30;;
41167;SDS011;26906;45.658;9.272;2023-03-15T16:37:51;0.30;;;0.30;;
41167;SDS011;26906;45.658;9.272;2023-03-15T16:40:27;0.85;;;0.30;;
41167;SDS011;26906;45.658;9.272;2023-03-15T16:42:56;1.95;;;0.30;;
41167;SDS011;26906;45.658;9.272;2023-03-15T16:45:22;1.10;;;0.40;;
41167;SDS011;26906;45.658;9.272;2023-03-15T16:47:48;0.35;;;0.30;;
41167;SDS011;26906;45.658;9.272;2023-03-15T16:50:14;0.47;;;0.30;;
41167;SDS011;26906;45.658;9.272;2023-03-15T16:52:40;0.75;;;0.50;;
41167;SDS011;26906;45.658;9.272;2023-03-15T16:55:14;0.68;;;0.40;;
41167;SDS011;26906;45.658;9.272;2023-03-15T16:57:43;4.65;;;0.90;;
41167;SDS011;26906;45.658;9.272;2023-03-15T17:00:12;0.60;;;0.50;;
41167;SDS011;26906;45.658;9.272;2023-03-15T17:02:41;1.20;;;0.80;;
41167;SDS011;26906;45.658;9.272;2023-03-15T17:05:10;1.25;;;0.90;;
41167;SDS011;26906;45.658;9.272;2023-03-15T17:07:40;3.00;;;1.67;;
41167;SDS011;26906;45.658;9.272;2023-03-15T17:10:21;0.75;;;0.70;;
41167;SDS011;26906;45.658;9.272;2023-03-15T17:12:55;1.10;;;0.75;;
41167;SDS011;26906;45.658;9.272;2023-03-15T17:15:26;0.98;;;0.82;;
41167;SDS011;26906;45.658;9.272;2023-03-15T17:17:53;1.45;;;0.85;;
41167;SDS011;26906;45.658;9.272;2023-03-15T17:20:25;1.67;;;0.98;;
41167;SDS011;26906;45.658;9.272;2023-03-15T17:23:01;1.63;;;1.08;;
41167;SDS011;26906;45.658;9.272;2023-03-15T17:25:28;1.20;;;1.05;;
41167;SDS011;26906;45.658;9.272;2023-03-15T17:27:53;1.83;;;0.90;;
41167;SDS011;26906;45.658;9.272;2023-03-15T17:30:27;2.08;;;0.65;;
41167;SDS011;26906;45.658;9.272;2023-03-15T17:32:55;0.98;;;0.80;;
41167;SDS011;26906;45.658;9.272;2023-03-15T17:35:22;0.80;;;0.70;;
41167;SDS011;26906;45.658;9.272;2023-03-15T17:37:53;0.85;;;0.60;;
41167;SDS011;26906;45.658;9.272;2023-03-15T17:40:27;1.58;;;1.02;;
41167;SDS011;26906;45.658;9.272;2023-03-15T17:42:55;1.27;;;0.90;;
41167;SDS011;26906;45.658;9.272;2023-03-15T17:45:27;0.80;;;0.70;;
41167;SDS011;26906;45.658;9.272;2023-03-15T17:47:55;0.75;;;0.70;;
41167;SDS011;26906;45.658;9.272;2023-03-15T17:50:22;6.45;;;0.80;;
41167;SDS011;26906;45.658;9.272;2023-03-15T17:52:53;1.50;;;1.00;;
41167;SDS011;26906;45.658;9.272;2023-03-15T17:55:23;1.67;;;0.60;;
41167;SDS011;26906;45.658;9.272;2023-03-15T17:57:50;0.93;;;0.70;;
41167;SDS011;26906;45.658;9.272;2023-03-15T18:00:16;0.80;;;0.75;;
41167;SDS011;26906;45.658;9.272;2023-03-15T18:02:43;0.80;;;0.80;;
41167;SDS011;26906;45.658;9.272;2023-03-15T18:05:12;1.05;;;0.88;;
41167;SDS011;26906;45.658;9.272;2023-03-15T18:07:44;0.98;;;0.70;;
41167;SDS011;26906;45.658;9.272;2023-03-15T18:10:12;3.35;;;0.70;;
41167;SDS011;26906;45.658;9.272;2023-03-15T18:12:40;0.95;;;0.80;;
41167;SDS011;26906;45.658;9.272;2023-03-15T18:15:09;1.52;;;1.10;;
41167;SDS011;26906;45.658;9.272;2023-03-15T18:17:41;1.45;;;0.70;;
41167;SDS011;26906;45.658;9.272;2023-03-15T18:20:08;0.90;;;0.65;;
41167;SDS011;26906;45.658;9.272;2023-03-15T18:22:35;1.42;;;0.70;;
41167;SDS011;26906;45.658;9.272;2023-03-15T18:25:04;0.80;;;0.80;;
41167;SDS011;26906;45.658;9.272;2023-03-15T18:27:32;1.75;;;1.00;;
41167;SDS011;26906;45.658;9.272;2023-03-15T18:29:58;3.78;;;2.65;;
41167;SDS011;26906;45.658;9.272;2023-03-15T18:32:27;5.70;;;2.70;;
41167;SDS011;26906;45.658;9.272;2023-03-15T18:34:53;1.73;;;1.10;;
41167;SDS011;26906;45.658;9.272;2023-03-15T18:37:19;1.33;;;0.98;;
41167;SDS011;26906;45.658;9.272;2023-03-15T18:39:46;1.40;;;1.30;;
41167;SDS011;26906;45.658;9.272;2023-03-15T18:42:11;2.05;;;1.10;;
41167;SDS011;26906;45.658;9.272;2023-03-15T18:44:37;1.23;;;0.85;;
41167;SDS011;26906;45.658;9.272;2023-03-15T18:47:03;1.33;;;0.90;;
41167;SDS011;26906;45.658;9.272;2023-03-15T18:49:29;2.42;;;1.15;;
41167;SDS011;26906;45.658;9.272;2023-03-15T18:51:55;2.63;;;1.45;;
41167;SDS011;26906;45.658;9.272;2023-03-15T18:54:21;3.42;;;1.33;;
41167;SDS011;26906;45.658;9.272;2023-03-15T18:56:51;2.42;;;1.40;;
41167;SDS011;26906;45.658;9.272;2023-03-15T18:59:19;1.77;;;1.35;;
41167;SDS011;26906;45.658;9.272;2023-03-15T19:01:46;2.25;;;1.40;;
41167;SDS011;26906;45.658;9.272;2023-03-15T19:04:11;2.55;;;1.55;;
41167;SDS011;26906;45.658;9.272;2023-03-15T19:06:37;1.98;;;1.70;;
41167;SDS011;26906;45.658;9.272;2023-03-15T19:09:03;6.28;;;4.13;;
41167;SDS011;26906;45.658;9.272;2023-03-15T19:11:29;3.25;;;2.30;;
41167;SDS011;26906;45.658;9.272;2023-03-15T19:13:56;4.28;;;2.25;;
41167;SDS011;26906;45.658;9.272;2023-03-15T19:16:22;4.30;;;2.90;;
41167;SDS011;26906;45.658;9.272;2023-03-15T19:18:49;10.18;;;6.03;;
41167;SDS011;26906;45.658;9.272;2023-03-15T19:21:17;8.25;;;3.80;;
41167;SDS011;26906;45.658;9.272;2023-03-15T19:23:44;11.20;;;5.32;;
41167;SDS011;26906;45.658;9.272;2023-03-15T19:26:10;5.88;;;2.70;;
41167;SDS011;26906;45.658;9.272;2023-03-15T19:28:38;7.82;;;5.00;;
41167;SDS011;26906;45.658;9.272;2023-03-15T19:31:04;6.95;;;4.00;;
41167;SDS011;26906;45.658;9.272;2023-03-15T19:33:29;5.35;;;3.05;;
41167;SDS011;26906;45.658;9.272;2023-03-15T19:35:55;3.22;;;2.08;;
41167;SDS011;26906;45.658;9.272;2023-03-15T19:38:21;3.30;;;2.00;;
41167;SDS011;26906;45.658;9.272;2023-03-15T19:40:47;4.00;;;2.00;;
41167;SDS011;26906;45.658;9.272;2023-03-15T19:43:14;6.68;;;4.40;;
41167;SDS011;26906;45.658;9.272;2023-03-15T19:45:40;5.43;;;3.25;;
41167;SDS011;26906;45.658;9.272;2023-03-15T19:48:06;5.32;;;3.63;;
41167;SDS011;26906;45.658;9.272;2023-03-15T19:50:31;6.07;;;3.38;;
41167;SDS011;26906;45.658;9.272;2023-03-15T19:52:58;2.72;;;1.98;;
41167;SDS011;26906;45.658;9.272;2023-03-15T19:55:24;4.13;;;3.15;;
41167;SDS011;26906;45.658;9.272;2023-03-15T19:57:53;3.63;;;2.60;;
41167;SDS011;26906;45.658;9.272;2023-03-15T20:00:19;3.75;;;2.90;;
41167;SDS011;26906;45.658;9.272;2023-03-15T20:02:45;3.00;;;2.55;;
41167;SDS011;26906;45.658;9.272;2023-03-15T20:05:12;4.82;;;2.90;;
41167;SDS011;26906;45.658;9.272;2023-03-15T20:07:41;5.75;;;3.95;;
41167;SDS011;26906;45.658;9.272;2023-03-15T20:10:08;4.45;;;3.40;;
41167;SDS011;26906;45.658;9.272;2023-03-15T20:12:35;7.53;;;4.18;;
41167;SDS011;26906;45.658;9.272;2023-03-15T20:15:03;10.10;;;3.58;;
41167;SDS011;26906;45.658;9.272;2023-03-15T20:17:30;5.55;;;4.25;;
41167;SDS011;26906;45.658;9.272;2023-03-15T20:19:56;8.73;;;5.35;;
41167;SDS011;26906;45.658;9.272;2023-03-15T20:22:22;9.50;;;4.57;;
41167;SDS011;26906;45.658;9.272;2023-03-15T20:24:48;6.05;;;4.70;;
41167;SDS011;26906;45.658;9.272;2023-03-15T20:27:15;10.80;;;4.90;;
41167;SDS011;26906;45.658;9.272;2023-03-15T20:29:41;30.27;;;14.13;;
41167;SDS011;26906;45.658;9.272;2023-03-15T20:32:07;26.98;;;12.48;;
41167;SDS011;26906;45.658;9.272;2023-03-15T20:34:33;8.00;;;5.38;;
41167;SDS011;26906;45.658;9.272;2023-03-15T20:37:01;5.57;;;4.07;;
41167;SDS011;26906;45.658;9.272;2023-03-15T20:39:27;8.38;;;4.50;;
41167;SDS011;26906;45.658;9.272;2023-03-15T20:41:56;5.18;;;4.07;;
41167;SDS011;26906;45.658;9.272;2023-03-15T20:44:23;6.13;;;4.53;;
41167;SDS011;26906;45.658;9.272;2023-03-15T20:46:54;5.60;;;4.20;;
41167;SDS011;26906;45.658;9.272;2023-03-15T20:49:22;5.45;;;4.13;;
41167;SDS011;26906;45.658;9.272;2023-03-15T20:51:48;5.15;;;4.55;;
41167;SDS011;26906;45.658;9.272;2023-03-15T20:54:15;5.63;;;4.32;;
41167;SDS011;26906;45.658;9.272;2023-03-15T20:56:41;6.65;;;4.55;;
41167;SDS011;26906;45.658;9.272;2023-03-15T20:59:06;5.63;;;4.00;;
41167;SDS011;26906;45.658;9.272;2023-03-15T21:01:32;4.85;;;4.32;;
41167;SDS011;26906;45.658;9.272;2023-03-15T21:03:58;7.85;;;4.80;;
41167;SDS011;26906;45.658;9.272;2023-03-15T21:06:24;6.60;;;4.90;;
41167;SDS011;26906;45.658;9.272;2023-03-15T21:08:50;6.97;;;4.95;;
41167;SDS011;26906;45.658;9.272;2023-03-15T21:11:16;9.18;;;5.93;;
41167;SDS011;26906;45.658;9.272;2023-03-15T21:13:41;6.20;;;5.15;;
